SE Cape Cod 30NM East of Nantucket, MA current weather conditions

sailwx.info

Wind from 270 at 29 knots gusting 34

Wave height 2.2 meters (7 feet), 6 second period

Air temperature 6.2° C
Dewpoint -4.2° C

Last reported at 2019-Dec-15 22:50 UTC.
Time now 2019-Dec-15 23:43 UTC

Location: N 42°12' W 070°06'.
View on Google Maps.

See reports from other nearby stations

  
Tides and Currents Weather Stations Pressure Air Temp Water Temp Dewpoint Dewpoint Depression Visibility Wind Speed Wind Dir Waves Ship Positions
date/time (UTC)wind fromknots sea level pressurealtimeterstation pressurevisibilityair tempwater tempwave heightnotes
2019-Dec-15 22:50 270 29 gusting 34 6.2 2.2
2019-Dec-15 21:50 260 29 gusting 34 6.8 2.0
2019-Dec-15 20:50 270 23 gusting 27 7.3 2.2
2019-Dec-15 19:50 260 25 gusting 31 7.6 2.1
2019-Dec-15 18:50 260 27 gusting 33 7.8 2.3
2019-Dec-15 17:50 260 27 gusting 31 7.9 2.3
2019-Dec-15 16:50 260 27 gusting 33 7.4 2.4
2019-Dec-15 15:50 260 27 gusting 31 7.2 2.3
2019-Dec-15 14:50 260 27 gusting 34 7.2 2.4
2019-Dec-15 13:50 260 25 gusting 31 6.9 2.2
2019-Dec-15 12:50 260 29 gusting 34 6.8 2.3
2019-Dec-15 11:50 260 29 gusting 34 6.8 2.1
2019-Dec-15 10:50 250 27 gusting 36 7.0 2.3
2019-Dec-15 09:50 250 27 gusting 34 7.1 2.0
2019-Dec-15 08:50 270 23 gusting 27 7.8 1.9
2019-Dec-15 07:50 220 23 gusting 29 8.5 1.9
2019-Dec-15 06:50 210 23 gusting 27 8.9 2.1
2019-Dec-15 05:50 210 23 gusting 27 8.6 2.0
2019-Dec-15 04:50 200 25 gusting 29 8.8 2.0
2019-Dec-15 03:50 200 25 gusting 31 9.5 2.0
2019-Dec-15 02:50 200 21 gusting 29 10.0 2.2
2019-Dec-15 01:50 190 21 gusting 25 10.9 2.2
2019-Dec-15 00:50 180 23 gusting 29 11.1 2.3
2019-Dec-14 23:50 170 9 gusting 11 10.3 2.2
2019-Dec-14 22:50 170 13 gusting 15 10.7 2.2
2019-Dec-14 21:50 170 13 gusting 15 9.7 1.9
2019-Dec-14 20:50 170 13 gusting 15 9.6 2.0
2019-Dec-14 19:50 170 11 gusting 13 9.7 2.0
2019-Dec-14 18:50 180 9 gusting 9 9.5 2.2
2019-Dec-14 17:50 180 11 gusting 13 10.8 2.4
2019-Dec-14 16:50 190 25 gusting 31 11.8 2.1
2019-Dec-14 15:50 140 19 gusting 23 10.9 2.2
2019-Dec-14 14:50 140 19 gusting 23 11.0 2.4
2019-Dec-14 13:50 130 17 gusting 21 9.8 2.4
2019-Dec-14 12:50 130 21 gusting 25 10.0 2.5
2019-Dec-14 11:50 130 23 gusting 31 10.2 2.8
2019-Dec-14 10:50 120 29 gusting 34 10.1 2.7
2019-Dec-14 09:50 120 27 gusting 31 10.1 2.2
2019-Dec-14 08:50 110 23 gusting 29 9.8 1.8
2019-Dec-14 07:50 120 21 gusting 25 9.3 1.7
2019-Dec-14 06:50 110 19 gusting 21 9.0 1.5
2019-Dec-14 05:50 120 21 gusting 23 9.0 1.5
2019-Dec-14 04:50 120 17 gusting 19 8.9 1.5
2019-Dec-14 03:50 120 13 gusting 17 8.8 1.4
2019-Dec-14 02:50 120 13 gusting 15 8.5 1.3
2019-Dec-14 01:50 130 9 gusting 13 8.1 1.4
2019-Dec-14 00:50 120 9 gusting 11 8.1 1.5
2019-Dec-13 23:50 110 11 gusting 13 8.0 1.5